createdAt,value
2022-11-16T00:01:57.118Z,4.17
2022-11-16T00:04:25.031Z,4.40
2022-11-16T00:06:52.971Z,4.70
2022-11-16T00:09:23.833Z,5.37
2022-11-16T00:11:54.154Z,4.30
2022-11-16T00:14:23.552Z,4.63
2022-11-16T00:16:51.543Z,4.20
2022-11-16T00:19:20.836Z,4.80
2022-11-16T00:21:48.816Z,4.50
2022-11-16T00:24:17.818Z,4.70
2022-11-16T00:26:46.567Z,4.70
2022-11-16T00:29:16.261Z,4.83
2022-11-16T00:31:45.561Z,4.50
2022-11-16T00:34:13.522Z,4.20
2022-11-16T00:36:42.714Z,4.20
2022-11-16T00:39:12.537Z,4.33
2022-11-16T00:41:40.460Z,4.70
2022-11-16T00:44:08.397Z,4.43
2022-11-16T00:46:36.233Z,5.00
2022-11-16T00:49:05.362Z,5.53
2022-11-16T00:51:33.832Z,5.50
2022-11-16T00:54:04.230Z,6.53
2022-11-16T00:56:34.294Z,5.93
2022-11-16T00:59:02.615Z,5.67
2022-11-16T01:01:30.878Z,5.40
2022-11-16T01:03:58.766Z,5.43
2022-11-16T01:06:26.650Z,5.37
2022-11-16T01:08:54.402Z,4.93
2022-11-16T01:11:43.677Z,4.83
2022-11-16T01:14:12.148Z,6.20
2022-11-16T01:16:39.952Z,6.77
2022-11-16T01:19:08.625Z,6.70
2022-11-16T01:21:36.403Z,6.47
2022-11-16T01:24:04.415Z,7.63
2022-11-16T01:26:33.567Z,6.97
2022-11-16T01:29:01.331Z,7.47
2022-11-16T01:31:33.610Z,7.03
2022-11-16T01:34:03.957Z,6.90
2022-11-16T01:36:31.818Z,8.30
2022-11-16T01:39:01.685Z,8.67
2022-11-16T01:41:35.922Z,7.37
2022-11-16T01:44:08.075Z,7.97
2022-11-16T01:46:45.598Z,9.20
2022-11-16T01:49:18.720Z,7.97
2022-11-16T01:51:50.790Z,8.67
2022-11-16T01:54:19.897Z,9.17
2022-11-16T01:57:02.739Z,9.73
2022-11-16T01:59:45.713Z,10.77
2022-11-16T02:02:17.721Z,10.20
2022-11-16T02:04:48.417Z,10.33
2022-11-16T02:07:52.768Z,9.17
2022-11-16T02:10:36.125Z,9.57
2022-11-16T02:13:29.611Z,7.87
2022-11-16T02:16:07.430Z,8.47
2022-11-16T02:18:40.442Z,7.70
2022-11-16T02:21:29.914Z,7.57
2022-11-16T02:24:21.411Z,8.53
2022-11-16T02:27:31.032Z,8.83
2022-11-16T02:30:00.374Z,8.83
2022-11-16T02:32:33.836Z,7.67
2022-11-16T02:35:07.397Z,8.00
2022-11-16T02:37:39.241Z,8.30
2022-11-16T02:40:11.814Z,7.63
2022-11-16T02:42:44.962Z,8.60
2022-11-16T02:45:20.263Z,8.67
2022-11-16T02:47:51.503Z,8.77
2022-11-16T02:50:23.258Z,7.80
2022-11-16T02:52:50.975Z,7.30
2022-11-16T02:55:18.933Z,5.40
2022-11-16T02:57:54.441Z,5.93
2022-11-16T03:00:26.228Z,5.70
2022-11-16T03:03:16.440Z,4.73
2022-11-16T03:05:49.528Z,5.00
2022-11-16T03:08:25.064Z,5.77
2022-11-16T03:11:14.134Z,5.13
2022-11-16T03:13:42.786Z,4.60
2022-11-16T03:16:16.917Z,4.53
2022-11-16T03:18:47.118Z,4.10
2022-11-16T03:21:24.945Z,4.50
2022-11-16T03:23:52.869Z,5.40
2022-11-16T03:26:27.236Z,5.03
2022-11-16T03:29:01.301Z,5.27
2022-11-16T03:31:38.920Z,6.60
2022-11-16T03:34:11.874Z,6.50
2022-11-16T03:36:42.961Z,6.27
2022-11-16T03:39:14.666Z,5.23
2022-11-16T03:41:45.060Z,6.10
2022-11-16T03:44:16.274Z,5.87
2022-11-16T03:46:46.229Z,5.73
2022-11-16T03:49:15.300Z,5.90
2022-11-16T03:51:44.076Z,5.90
2022-11-16T03:54:11.886Z,5.63
2022-11-16T03:56:40.926Z,6.13
2022-11-16T03:59:09.584Z,5.20
2022-11-16T04:01:40.464Z,5.13
2022-11-16T04:04:33.551Z,5.77
2022-11-16T04:07:19.289Z,5.45
2022-11-16T04:10:04.578Z,5.10
2022-11-16T04:12:50.735Z,4.17
2022-11-16T04:15:36.438Z,4.17
2022-11-16T04:18:22.423Z,3.70
2022-11-16T04:21:20.913Z,4.20
2022-11-16T04:24:07.418Z,3.47
2022-11-16T04:26:50.086Z,3.67
2022-11-16T04:29:18.585Z,3.43
2022-11-16T04:32:04.764Z,3.23
2022-11-16T04:34:49.964Z,3.30
2022-11-16T04:37:37.759Z,2.83
2022-11-16T04:40:08.530Z,2.30
2022-11-16T04:42:36.523Z,2.43
2022-11-16T04:45:23.571Z,2.50
2022-11-16T04:47:53.572Z,2.50
2022-11-16T04:50:25.381Z,2.30
2022-11-16T04:52:54.558Z,2.38
2022-11-16T04:55:22.286Z,1.80
2022-11-16T04:57:51.901Z,2.10
2022-11-16T05:00:21.244Z,1.50
2022-11-16T05:02:50.582Z,1.13
2022-11-16T05:05:18.463Z,1.60
2022-11-16T05:07:48.531Z,1.30
2022-11-16T05:10:23.785Z,1.60
2022-11-16T05:12:53.383Z,1.47
2022-11-16T05:15:21.407Z,1.40
2022-11-16T05:17:51.152Z,1.47
2022-11-16T05:20:40.650Z,0.95
2022-11-16T05:23:29.725Z,1.40
2022-11-16T05:26:02.904Z,1.07
2022-11-16T05:28:30.852Z,1.00
2022-11-16T05:30:58.990Z,1.23
2022-11-16T05:33:29.250Z,1.27
2022-11-16T05:35:57.086Z,1.57
2022-11-16T05:38:25.075Z,1.30
2022-11-16T05:40:58.771Z,1.60
2022-11-16T05:43:27.883Z,1.20
2022-11-16T05:46:21.845Z,1.40
2022-11-16T05:48:49.918Z,1.30
2022-11-16T05:51:18.521Z,1.30
2022-11-16T05:53:46.569Z,1.40
2022-11-16T05:56:19.653Z,1.47
2022-11-16T05:58:49.140Z,1.60
2022-11-16T06:01:16.935Z,1.83
2022-11-16T06:03:44.669Z,1.50
2022-11-16T06:06:12.516Z,1.13
2022-11-16T06:08:40.449Z,1.53
2022-11-16T06:11:11.949Z,1.57
2022-11-16T06:13:40.540Z,1.53
2022-11-16T06:16:10.695Z,1.35
2022-11-16T06:18:39.557Z,1.53
2022-11-16T06:21:08.073Z,1.80
2022-11-16T06:23:36.421Z,1.30
2022-11-16T06:26:05.271Z,1.80
2022-11-16T06:28:34.516Z,1.47
2022-11-16T06:31:02.691Z,1.75
2022-11-16T06:33:35.734Z,1.90
2022-11-16T06:36:07.794Z,1.70
2022-11-16T06:38:37.418Z,2.00
2022-11-16T06:41:05.513Z,1.90
2022-11-16T06:43:38.989Z,2.07
2022-11-16T06:46:07.331Z,2.03
2022-11-16T06:48:36.726Z,2.10
2022-11-16T06:51:09.626Z,2.33
2022-11-16T06:56:23.688Z,1.73
2022-11-16T06:58:56.919Z,1.70
2022-11-16T07:01:29.957Z,1.80
2022-11-16T07:04:05.235Z,1.90
2022-11-16T07:06:33.920Z,2.10
2022-11-16T07:09:01.658Z,1.90
2022-11-16T07:11:32.073Z,1.83
2022-11-16T07:14:00.408Z,1.93
2022-11-16T07:16:29.916Z,1.90
2022-11-16T07:19:01.267Z,2.00
2022-11-16T07:21:32.911Z,1.93
2022-11-16T07:24:03.370Z,1.73
2022-11-16T07:26:32.994Z,2.20
2022-11-16T07:29:07.521Z,1.80
2022-11-16T07:31:38.694Z,2.10
2022-11-16T07:35:31.601Z,2.00
2022-11-16T07:38:54.386Z,1.87
2022-11-16T07:42:00.951Z,1.87
2022-11-16T07:45:20.965Z,1.90
2022-11-16T07:48:42.765Z,1.83
2022-11-16T07:51:29.112Z,2.17
2022-11-16T07:54:23.216Z,1.87
2022-11-16T07:56:53.363Z,2.47
2022-11-16T07:59:22.759Z,1.93
2022-11-16T08:01:51.477Z,2.27
2022-11-16T08:04:19.298Z,2.73
2022-11-16T08:06:47.186Z,2.50
2022-11-16T08:09:15.203Z,2.00
2022-11-16T08:11:43.921Z,1.57
2022-11-16T08:14:13.036Z,2.20
2022-11-16T08:16:42.134Z,2.07
2022-11-16T08:19:14.139Z,1.80
2022-11-16T08:21:42.110Z,2.33
2022-11-16T08:24:10.537Z,2.03
2022-11-16T08:26:42.582Z,2.13
2022-11-16T08:29:15.140Z,1.73
2022-11-16T08:31:49.598Z,1.63
2022-11-16T08:34:21.311Z,2.33
2022-11-16T08:36:52.699Z,2.57
2022-11-16T08:39:26.745Z,2.23
2022-11-16T08:41:54.665Z,1.83
2022-11-16T08:44:22.509Z,2.40
2022-11-16T08:46:54.964Z,2.63
2022-11-16T08:49:36.181Z,2.40
2022-11-16T08:54:51.456Z,2.07
2022-11-16T08:57:19.270Z,2.17
2022-11-16T08:59:50.359Z,2.10
2022-11-16T09:02:25.306Z,2.27
2022-11-16T09:04:53.237Z,2.10
2022-11-16T09:07:21.613Z,1.73
2022-11-16T09:09:49.450Z,1.90
2022-11-16T09:12:17.674Z,2.30
2022-11-16T09:14:45.388Z,2.10
2022-11-16T09:17:13.090Z,1.80
2022-11-16T09:19:42.172Z,1.83
2022-11-16T09:22:09.854Z,2.07
2022-11-16T09:24:37.566Z,2.00
2022-11-16T09:27:06.679Z,2.10
2022-11-16T09:29:34.358Z,2.90
2022-11-16T09:32:02.207Z,1.97
2022-11-16T09:34:30.223Z,1.90
2022-11-16T09:36:59.246Z,2.27
2022-11-16T09:42:27.325Z,1.70
2022-11-16T09:45:04.498Z,2.07
2022-11-16T09:47:42.980Z,1.90
2022-11-16T09:50:23.409Z,2.07
2022-11-16T09:52:56.498Z,1.97
2022-11-16T09:55:28.682Z,1.67
2022-11-16T09:57:59.464Z,1.90
2022-11-16T10:00:28.105Z,1.60
2022-11-16T10:03:03.418Z,2.00
2022-11-16T10:05:37.474Z,2.23
2022-11-16T10:08:15.547Z,2.60
2022-11-16T10:10:51.528Z,1.70
2022-11-16T10:13:35.842Z,2.13
2022-11-16T10:16:12.517Z,1.80
2022-11-16T10:18:53.437Z,1.60
2022-11-16T10:21:35.016Z,1.70
2022-11-16T10:24:25.001Z,1.87
2022-11-16T10:27:04.853Z,2.00
2022-11-16T10:29:53.238Z,1.90
2022-11-16T10:32:28.059Z,1.93
2022-11-16T10:35:01.271Z,1.60
2022-11-16T10:37:32.568Z,1.70
2022-11-16T10:40:12.958Z,1.83
2022-11-16T10:42:40.668Z,2.03
2022-11-16T10:45:17.824Z,1.87
2022-11-16T10:47:52.781Z,1.73
2022-11-16T10:50:32.889Z,1.67
2022-11-16T10:53:01.641Z,2.03
2022-11-16T10:55:30.745Z,1.60
2022-11-16T10:58:00.267Z,2.40
2022-11-16T11:00:47.058Z,2.40
2022-11-16T11:03:14.858Z,1.83
2022-11-16T11:05:53.383Z,1.83
2022-11-16T11:08:30.534Z,1.70
2022-11-16T11:11:22.548Z,2.00
2022-11-16T11:14:05.287Z,1.70
2022-11-16T11:16:33.235Z,1.93
2022-11-16T11:19:19.579Z,1.53
2022-11-16T11:21:48.426Z,1.60
2022-11-16T11:24:43.447Z,1.43
2022-11-16T11:27:07.742Z,1.47
2022-11-16T11:29:37.891Z,1.70
2022-11-16T11:32:07.713Z,1.33
2022-11-16T11:34:41.590Z,1.90
2022-11-16T11:37:16.847Z,2.13
2022-11-16T11:42:31.594Z,1.58
2022-11-16T11:45:03.476Z,1.77
2022-11-16T11:47:58.744Z,1.53
2022-11-16T11:50:37.865Z,1.50
2022-11-16T11:53:08.861Z,2.00
2022-11-16T11:55:36.587Z,1.60
2022-11-16T11:58:07.761Z,1.93
2022-11-16T12:00:47.417Z,1.80
2022-11-16T12:03:37.343Z,1.73
2022-11-16T12:06:10.835Z,1.90
2022-11-16T12:08:58.240Z,1.63
2022-11-16T12:11:34.601Z,1.50
2022-11-16T12:14:19.215Z,1.43
2022-11-16T12:16:52.027Z,1.80
2022-11-16T12:19:38.222Z,1.37
2022-11-16T12:22:15.651Z,1.60
2022-11-16T12:25:00.489Z,1.73
2022-11-16T12:27:40.952Z,1.40
2022-11-16T12:30:14.098Z,1.90
2022-11-16T12:33:00.570Z,1.17
2022-11-16T12:35:48.143Z,1.20
2022-11-16T12:38:31.006Z,1.87
2022-11-16T12:41:18.571Z,1.23
2022-11-16T12:43:54.833Z,1.90
2022-11-16T12:46:33.684Z,1.73
2022-11-16T12:49:35.678Z,1.20
2022-11-16T12:52:19.304Z,1.50
2022-11-16T12:55:25.447Z,1.30
2022-11-16T12:58:00.989Z,1.40
2022-11-16T13:00:32.834Z,1.30
2022-11-16T13:03:14.063Z,1.40
2022-11-16T13:05:54.340Z,1.27
2022-11-16T13:08:34.907Z,1.50
2022-11-16T13:11:07.970Z,1.40
2022-11-16T13:13:37.309Z,1.40
2022-11-16T13:16:07.878Z,1.40
2022-11-16T13:18:42.489Z,1.37
2022-11-16T13:21:21.868Z,2.10
2022-11-16T13:24:01.505Z,1.37
2022-11-16T13:26:34.475Z,1.37
2022-11-16T13:29:12.925Z,1.35
2022-11-16T13:31:45.560Z,1.30
2022-11-16T13:34:19.067Z,1.50
2022-11-16T13:36:47.814Z,1.70
2022-11-16T13:39:22.277Z,1.48
2022-11-16T13:41:51.806Z,1.60
2022-11-16T13:44:31.046Z,1.70
2022-11-16T13:47:04.539Z,2.30
2022-11-16T13:49:37.874Z,1.33
2022-11-16T13:52:22.539Z,1.33
2022-11-16T13:54:54.384Z,1.30
2022-11-16T13:57:25.903Z,1.00
2022-11-16T14:00:09.156Z,0.90
2022-11-16T14:02:38.497Z,1.07
2022-11-16T14:05:15.782Z,0.90
2022-11-16T14:07:46.400Z,1.10
2022-11-16T14:10:55.504Z,0.80
2022-11-16T14:13:42.204Z,1.10
2022-11-16T14:16:54.625Z,1.00
2022-11-16T14:19:52.154Z,0.90
2022-11-16T14:22:36.289Z,1.10
2022-11-16T14:25:15.153Z,0.90
2022-11-16T14:27:50.618Z,1.43
2022-11-16T14:30:25.412Z,1.70
2022-11-16T14:32:55.786Z,1.10
2022-11-16T14:35:33.795Z,1.05
2022-11-16T14:38:05.598Z,1.00
2022-11-16T14:40:44.124Z,1.13
2022-11-16T14:43:19.190Z,1.10
2022-11-16T14:45:56.231Z,1.33
2022-11-16T14:48:26.775Z,1.70
2022-11-16T14:51:06.680Z,1.27
2022-11-16T14:53:38.568Z,1.40
2022-11-16T14:56:09.399Z,1.23
2022-11-16T14:58:37.963Z,1.50
2022-11-16T15:01:09.638Z,1.87
2022-11-16T15:03:42.121Z,1.70
2022-11-16T15:06:10.343Z,1.87
2022-11-16T15:08:44.415Z,1.67
2022-11-16T15:11:23.314Z,1.45
2022-11-16T15:13:51.881Z,1.90
2022-11-16T15:16:21.591Z,2.00
2022-11-16T15:19:00.390Z,2.08
2022-11-16T15:21:29.271Z,1.70
2022-11-16T15:26:45.138Z,2.13
2022-11-16T15:29:17.637Z,2.10
2022-11-16T15:31:47.831Z,2.60
2022-11-16T15:34:18.365Z,2.28
2022-11-16T15:36:47.312Z,2.03
2022-11-16T15:39:20.312Z,2.55
2022-11-16T15:41:51.614Z,2.00
2022-11-16T15:44:24.373Z,2.10
2022-11-16T15:46:56.312Z,2.10
2022-11-16T15:49:30.323Z,1.60
2022-11-16T15:51:59.425Z,1.90
2022-11-16T15:54:29.586Z,2.20
2022-11-16T15:57:09.820Z,2.37
2022-11-16T15:59:38.387Z,1.83
2022-11-16T16:02:19.090Z,1.60
2022-11-16T16:04:47.050Z,1.83
2022-11-16T16:07:39.033Z,1.70
2022-11-16T16:10:15.141Z,1.93
2022-11-16T16:12:57.685Z,1.80
2022-11-16T16:15:29.754Z,1.97
2022-11-16T16:17:59.994Z,1.80
2022-11-16T16:20:36.096Z,3.00
2022-11-16T16:23:15.815Z,1.90
2022-11-16T16:25:49.030Z,2.27
2022-11-16T16:28:18.172Z,2.13
2022-11-16T16:30:51.358Z,2.00
2022-11-16T16:33:28.478Z,2.20
2022-11-16T16:35:56.190Z,2.33
2022-11-16T16:38:23.966Z,3.03
2022-11-16T16:40:51.812Z,3.40
2022-11-16T16:43:21.420Z,3.63
2022-11-16T16:45:49.162Z,3.67
2022-11-16T16:48:16.893Z,3.27
2022-11-16T16:50:46.137Z,3.33
2022-11-16T16:53:14.641Z,3.00
2022-11-16T16:55:43.622Z,3.70
2022-11-16T16:58:13.177Z,2.70
2022-11-16T17:00:41.013Z,2.60
2022-11-16T17:03:08.854Z,2.50
2022-11-16T17:05:37.226Z,2.23
2022-11-16T17:08:07.224Z,2.37
2022-11-16T17:10:34.956Z,1.87
2022-11-16T17:13:03.791Z,1.97
2022-11-16T17:15:31.725Z,2.00
2022-11-16T17:18:00.077Z,2.23
2022-11-16T17:20:27.905Z,2.80
2022-11-16T17:22:55.584Z,2.37
2022-11-16T17:25:24.698Z,2.97
2022-11-16T17:27:52.509Z,2.70
2022-11-16T17:30:20.252Z,2.50
2022-11-16T17:32:47.895Z,2.47
2022-11-16T17:35:16.008Z,2.40
2022-11-16T17:37:43.761Z,3.00
2022-11-16T17:40:11.999Z,2.50
2022-11-16T17:42:41.019Z,2.80
2022-11-16T17:45:09.276Z,2.23
2022-11-16T17:47:36.992Z,2.40
2022-11-16T17:50:05.078Z,2.53
2022-11-16T17:52:32.767Z,2.70
2022-11-16T17:55:00.480Z,2.30
2022-11-16T17:57:28.181Z,2.97
2022-11-16T17:59:57.369Z,3.20
2022-11-16T18:02:25.108Z,3.00
2022-11-16T18:04:52.905Z,2.90
2022-11-16T18:07:20.668Z,3.63
2022-11-16T18:09:48.394Z,2.90
2022-11-16T18:12:16.075Z,2.30
2022-11-16T18:14:54.913Z,2.30
2022-11-16T18:17:34.774Z,2.10
2022-11-16T18:20:02.570Z,2.70
2022-11-16T18:22:30.254Z,2.67
2022-11-16T18:24:57.963Z,2.57
2022-11-16T18:27:25.864Z,2.60
2022-11-16T18:29:53.975Z,2.50
2022-11-16T18:32:21.685Z,1.77
2022-11-16T18:34:50.914Z,2.00
2022-11-16T18:37:18.781Z,1.83
2022-11-16T18:39:46.470Z,2.77
2022-11-16T18:42:14.233Z,2.87
2022-11-16T18:44:41.912Z,2.53
2022-11-16T18:47:09.640Z,2.30
2022-11-16T18:49:37.543Z,2.83
2022-11-16T18:52:06.774Z,2.77
2022-11-16T18:54:34.527Z,3.07
2022-11-16T18:57:02.278Z,2.87
2022-11-16T18:59:30.162Z,3.47
2022-11-16T19:04:41.069Z,2.87
2022-11-16T19:07:10.256Z,3.10
2022-11-16T19:09:38.158Z,2.87
2022-11-16T19:12:06.275Z,2.63
2022-11-16T19:14:34.120Z,2.80
2022-11-16T19:17:03.884Z,2.63
2022-11-16T19:19:31.666Z,2.20
2022-11-16T19:21:59.391Z,2.40
2022-11-16T19:24:28.485Z,2.50
2022-11-16T19:26:56.252Z,2.80
2022-11-16T19:29:24.007Z,2.77
2022-11-16T19:31:51.763Z,2.70
2022-11-16T19:34:22.406Z,2.73
2022-11-16T19:36:50.644Z,2.70
2022-11-16T19:39:18.386Z,2.40
2022-11-16T19:41:51.316Z,2.70
2022-11-16T19:44:20.002Z,2.57
2022-11-16T19:46:47.692Z,2.60
2022-11-16T19:49:20.196Z,2.70
2022-11-16T19:51:48.646Z,2.50
2022-11-16T19:54:16.421Z,2.50
2022-11-16T19:56:49.285Z,2.53
2022-11-16T19:59:22.410Z,2.37
2022-11-16T20:01:50.159Z,2.43
2022-11-16T20:04:17.864Z,2.63
2022-11-16T20:06:45.660Z,2.50
2022-11-16T20:09:13.354Z,2.60
2022-11-16T20:11:46.370Z,2.10
2022-11-16T20:14:16.343Z,3.10
2022-11-16T20:16:50.886Z,2.95
2022-11-16T20:19:20.654Z,2.27
2022-11-16T20:21:53.626Z,2.58
2022-11-16T20:24:21.561Z,2.40
2022-11-16T20:26:50.070Z,2.53
2022-11-16T20:29:19.548Z,3.23
2022-11-16T20:31:48.758Z,2.50
2022-11-16T20:34:20.062Z,3.10
2022-11-16T20:36:50.719Z,2.63
2022-11-16T20:39:20.662Z,2.30
2022-11-16T20:41:49.025Z,2.37
2022-11-16T20:44:21.052Z,2.30
2022-11-16T20:46:52.105Z,2.27
2022-11-16T20:49:19.938Z,2.27
2022-11-16T20:51:48.386Z,2.33
2022-11-16T20:54:16.194Z,2.33
2022-11-16T20:56:44.486Z,2.77
2022-11-16T20:59:12.317Z,2.33
2022-11-16T21:01:41.543Z,2.20
2022-11-16T21:04:10.941Z,2.10
2022-11-16T21:06:38.779Z,2.17
2022-11-16T21:09:06.631Z,2.37
2022-11-16T21:11:58.442Z,2.37
2022-11-16T21:14:25.456Z,1.90
2022-11-16T21:16:53.252Z,1.70
2022-11-16T21:19:22.474Z,2.70
2022-11-16T21:21:50.331Z,2.43
2022-11-16T21:24:18.243Z,2.10
2022-11-16T21:26:46.050Z,2.17
2022-11-16T21:29:13.948Z,1.90
2022-11-16T21:31:41.860Z,1.90
2022-11-16T21:34:09.841Z,2.10
2022-11-16T21:36:39.326Z,1.80
2022-11-16T21:39:07.358Z,1.70
2022-11-16T21:41:35.160Z,1.75
2022-11-16T21:44:02.919Z,1.90
2022-11-16T21:46:30.662Z,2.03
2022-11-16T21:48:59.011Z,1.93
2022-11-16T21:51:27.906Z,2.00
2022-11-16T21:54:00.258Z,2.00
2022-11-16T21:56:28.106Z,1.70
2022-11-16T21:58:56.263Z,2.07
2022-11-16T22:01:49.007Z,1.77
2022-11-16T22:04:34.412Z,2.40
2022-11-16T22:07:20.086Z,2.47
2022-11-16T22:09:51.250Z,2.30
2022-11-16T22:12:22.455Z,2.17
2022-11-16T22:14:51.140Z,2.40
2022-11-16T22:17:18.968Z,2.20
2022-11-16T22:19:49.587Z,3.17
2022-11-16T22:22:17.504Z,3.17
2022-11-16T22:24:47.454Z,2.40
2022-11-16T22:27:19.655Z,2.00
2022-11-16T22:29:47.445Z,2.37
2022-11-16T22:32:15.243Z,2.10
2022-11-16T22:34:50.932Z,2.07
2022-11-16T22:37:19.062Z,1.80
2022-11-16T22:39:46.810Z,1.63
2022-11-16T22:42:14.542Z,1.70
2022-11-16T22:44:43.716Z,1.90
2022-11-16T22:47:11.547Z,1.90
2022-11-16T22:49:39.303Z,1.80
2022-11-16T22:52:07.108Z,1.80
2022-11-16T22:54:37.825Z,1.95
2022-11-16T22:57:05.723Z,1.90
2022-11-16T22:59:34.499Z,1.70
2022-11-16T23:02:05.047Z,2.00
2022-11-16T23:04:33.041Z,1.80
2022-11-16T23:07:00.922Z,1.65
2022-11-16T23:09:28.837Z,1.90
2022-11-16T23:12:14.091Z,2.00
2022-11-16T23:14:59.310Z,1.73
2022-11-16T23:17:28.593Z,1.98
2022-11-16T23:20:17.611Z,1.60
2022-11-16T23:22:59.666Z,2.17
2022-11-16T23:25:44.837Z,2.00
2022-11-16T23:28:15.600Z,2.10
2022-11-16T23:30:43.496Z,1.60
2022-11-16T23:33:12.970Z,1.70
2022-11-16T23:35:40.828Z,2.23
2022-11-16T23:38:09.838Z,1.57
2022-11-16T23:40:39.829Z,1.70
2022-11-16T23:43:26.013Z,1.60
2022-11-16T23:45:53.730Z,1.90
2022-11-16T23:48:22.828Z,1.75
2022-11-16T23:50:50.527Z,1.52
2022-11-16T23:53:18.260Z,2.70
2022-11-16T23:55:47.535Z,2.00
2022-11-16T23:58:15.805Z,1.60
